Terminal Aerodrome Forecast
Issued by NWS

Home | Current Version | Previous Version | Text Only | Print | Product List | Glossary On
Versions: 1 2 3 4 5 6 7 8 9 10 11 12 13
000
FTUS42 KMLB 211700
TAFLEE
TAF
KLEE 211727Z 2118/2218 VRB04KT P6SM FEW035 BKN250
     FM212000 31003KT P6SM BKN250
     FM221400 02007KT P6SM BKN250=

USA.gov is the U.S. government's official web portal to all federal, state and local government web resources and services.